Latest Weather Observations for Oenpelli Airport

IDD60801

Issued at 3:51 pm CST Monday 26 September 2022 (issued every 10 minutes, with the page automatically refreshed every 10 minutes)

About weather observations | Map of weather stations | Latest weather observations for NT | Other Formats
Station Details ID: 014310 Name: OENPELLI AIRPORT Lat: -12.33 Lon: 133.01 Height: 7.5 m
Data from the previous 72 hours. | See also: Recent months at Oenpelli Airport
Date/Time
CST
Temp
°C
App
Temp
°C
Dew
Point
°C
Rel
Hum
%
Delta-T
°C
Wind Press
QNH
hPa
Press
MSL
hPa
Rain since
9am
mm
Dir  Spd
km/h
Gust
km/h
Spd
kts
Gust
kts
26/03:30pm 36.7 35.9 15.2 27 13.5 ENE 13 22 7 12 1005.9 1005.8 0.0
26/03:00pm 37.3 36.3 14.6 26 14.2 ENE 13 24 7 13 1006.1 1006.0 0.0
26/02:30pm 37.5 35.4 14.7 25 14.3 NE 19 28 10 15 1006.5 1006.4 0.0
26/02:00pm 37.5 37.0 15.9 28 13.7 ENE 13 24 7 13 1006.9 1006.8 0.0
26/01:30pm 37.5 37.2 16.4 28 13.5 ENE 13 28 7 15 1007.4 1007.3 0.0
26/01:00pm 35.9 35.7 16.6 31 12.3 NE 13 24 7 13 1007.9 1007.8 0.0
26/12:30pm 36.1 37.3 18.2 34 11.7 NE 9 26 5 14 1008.4 1008.3 0.0
26/12:00pm 35.2 36.2 18.7 37 10.8 NE 11 20 6 11 1009.0 1008.9 0.0
26/11:30am 34.8 35.5 18.8 39 10.5 E 13 22 7 12 1009.7 1009.6 0.0
26/11:00am 34.0 35.8 19.6 42 9.5 NNE 9 17 5 9 1010.1 1010.0 0.0
26/10:30am 32.5 34.8 20.7 49 7.9 ENE 9 15 5 8 1010.4 1010.3 0.0
26/10:00am 31.4 33.6 20.4 52 7.3 ENE 9 17 5 9 1010.6 1010.5 0.0
26/09:30am 30.5 33.5 21.3 58 6.2 E 7 15 4 8 1010.9 1010.8 0.0
26/09:00am 29.9 33.1 21.3 60 5.8 ESE 6 7 3 4 1010.9 1010.8 0.0
26/08:30am 29.0 32.7 20.7 61 5.5 NE 2 4 1 2 1010.9 1010.8 0.0
26/08:00am 27.5 31.9 21.3 69 4.1 CALM 0 0 0 0 1010.9 1010.8 0.0
26/07:30am 24.0 26.8 19.7 77 2.8 S 4 6 2 3 1010.7 1010.6 0.0
26/07:00am 23.3 26.6 19.0 77 2.7 CALM 0 2 0 1 1010.4 1010.3 0.0
26/06:30am 22.3 24.6 18.5 79 2.4 ENE 4 7 2 4 1010.2 1010.1 0.0
26/06:00am 21.9 24.6 17.7 77 2.6 CALM 0 4 0 2 1009.8 1009.7 0.0
26/05:30am 22.4 25.2 18.0 76 2.7 CALM 0 2 0 1 1009.6 1009.5 0.0
26/05:00am 22.7 25.6 18.3 76 2.8 CALM 0 0 0 0 1009.1 1009.0 0.0
26/04:30am 22.5 25.4 18.1 76 2.8 CALM 0 0 0 0 1008.9 1008.8 0.0
26/04:00am 24.0 27.0 18.4 71 3.5 CALM 0 0 0 0 1008.9 1008.8 0.0
26/03:30am 24.3 26.6 18.5 70 3.7 SW 4 6 2 3 1008.8 1008.7 0.0
26/03:00am 24.0 26.2 19.1 74 3.1 SW 6 7 3 4 1008.8 1008.7 0.0
26/02:30am 23.0 24.9 17.7 72 3.3 SW 4 6 2 3 1009.1 1009.0 0.0
26/02:00am 23.0 25.7 17.7 72 3.3 CALM 0 0 0 0 1009.5 1009.4 0.0
26/01:30am 24.6 27.3 17.8 66 4.3 CALM 0 0 0 0 1009.7 1009.6 0.0
26/01:00am 24.8 27.3 17.3 63 4.7 CALM 0 0 0 0 1009.9 1009.8 0.0
26/12:30am 25.3 26.7 17.7 62 4.8 ENE 7 7 4 4 1010.1 1010.0 0.0
26/12:00am 25.6 27.2 17.8 62 4.9 ENE 6 7 3 4 1010.4 1010.3 0.0
 
Date/Time
CST
Temp
°C
App
Temp
°C
Dew
Point
°C
Rel
Hum
%
Delta-T
°C
Wind Press
QNH
hPa
Press
MSL
hPa
Rain since
9am
mm
Dir  Spd
km/h
Gust
km/h
Spd
kts
Gust
kts
25/11:30pm 26.2 27.8 17.0 57 5.7 E 4 6 2 3 1010.5 1010.4 0.0
25/11:00pm 26.1 27.2 16.6 55 5.9 ENE 6 7 3 4 1010.5 1010.4 0.0
25/10:30pm 26.3 27.3 16.8 56 5.9 ENE 7 9 4 5 1010.6 1010.5 0.0
25/10:00pm 26.8 27.6 15.8 51 6.7 ENE 6 7 3 4 1010.4 1010.3 0.0
25/09:30pm 27.2 27.4 14.2 44 7.8 ENE 6 7 3 4 1010.0 1009.9 0.0
25/09:00pm 28.0 28.1 11.5 35 9.5 NE 2 4 1 2 1009.6 1009.5 0.0
25/08:30pm 28.7 27.6 10.8 33 10.2 NE 7 9 4 5 1009.1 1009.0 0.0
25/08:00pm 29.5 28.0 10.6 31 10.8 NE 9 11 5 6 1008.6 1008.5 0.0
25/07:30pm 30.5 29.6 10.5 29 11.4 NNE 6 9 3 5 1008.1 1008.0 0.0
25/07:00pm 32.0 30.7 11.2 28 12.1 N 9 15 5 8 1007.5 1007.4 0.0
25/06:30pm 33.4 32.1 12.4 28 12.5 N 11 15 6 8 1007.1 1007.0 0.0
25/06:00pm 35.0 33.0 12.6 26 13.5 NNE 15 22 8 12 1006.5 1006.4 0.0
25/05:30pm 36.3 33.5 12.5 24 14.4 N 19 30 10 16 1006.1 1006.0 0.0
25/05:00pm 38.0 35.8 7.8 16 17.1 NNE 9 17 5 9 1005.8 1005.7 0.0
25/04:30pm 38.5 35.6 8.2 16 17.4 NE 13 19 7 10 1005.8 1005.7 0.0
25/04:00pm 38.7 36.6 8.4 16 17.4 ENE 9 17 5 9 1005.8 1005.7 0.0
25/03:30pm 38.5 36.4 8.2 16 17.4 NE 9 19 5 10 1006.0 1005.9 0.0
25/03:00pm 38.5 35.4 7.3 15 17.6 ENE 13 24 7 13 1006.5 1006.4 0.0
25/02:30pm 38.2 35.4 7.0 15 17.5 NE 11 22 6 12 1007.1 1007.0 0.0
25/02:00pm 38.3 36.0 5.0 13 18.1 E 6 17 3 9 1007.6 1007.5 0.0
25/01:30pm 38.0 35.5 4.8 13 18.0 NE 7 19 4 10 1008.1 1008.0 0.0
25/01:00pm 37.0 34.2 5.1 14 17.3 E 9 17 5 9 1008.8 1008.7 0.0
25/12:30pm 36.8 33.8 5.9 15 16.9 ENE 11 28 6 15 1009.5 1009.4 0.0
25/12:00pm 35.3 33.4 10.4 22 14.5 SSW 11 22 6 12 1010.2 1010.1 0.0
25/11:30am 34.1 33.7 14.1 30 12.3 ESE 9 20 5 11 1010.9 1010.8 0.0
25/11:00am 33.5 33.1 13.0 29 12.3 SE 7 11 4 6 1011.4 1011.3 0.0
25/10:30am 32.2 34.3 18.0 42 9.1 WSW 4 7 2 4 1011.8 1011.7 0.0
25/10:00am 31.2 33.3 18.9 48 8.0 SSE 6 9 3 5 1012.2 1012.1 0.0
25/09:30am 29.2 32.6 20.1 58 6.0 S 2 7 1 4 1012.4 1012.3 0.0
25/09:00am 28.6 31.8 20.6 62 5.3 NW 4 6 2 3 1012.2 1012.1 0.0
25/08:30am 27.8 31.4 20.6 65 4.7 ENE 2 4 1 2 1012.1 1012.0 0.0
25/08:00am 26.1 30.0 20.4 71 3.7 CALM 0 0 0 0 1011.8 1011.7 0.0
25/07:30am 23.8 27.5 19.9 79 2.5 CALM 0 0 0 0 1011.3 1011.2 0.0
25/07:00am 20.9 24.2 19.0 89 1.2 CALM 0 0 0 0 1010.8 1010.7 0.0
25/06:30am 20.0 22.4 18.0 88 1.2 SW 2 4 1 2 1010.5 1010.4 0.0
25/06:00am 20.9 23.8 18.1 84 1.7 CALM 0 0 0 0 1010.1 1010.0 0.0
25/05:30am 21.0 23.8 18.0 83 1.9 CALM 0 0 0 0 1009.9 1009.8 0.0
25/05:00am 21.1 24.0 18.3 84 1.7 CALM 0 0 0 0 1009.6 1009.5 0.0
25/04:30am 21.1 24.0 18.3 84 1.7 CALM 0 0 0 0 1009.4 1009.3 0.0
25/04:00am 20.1 22.6 17.3 84 1.7 CALM 0 2 0 1 1009.4 1009.3 0.0
25/03:30am 21.7 23.6 17.7 78 2.5 NW 4 7 2 4 1009.3 1009.2 0.0
25/03:00am 23.5 26.1 18.4 73 3.2 NNE 2 4 1 2 1009.3 1009.2 0.0
25/02:30am 24.1 26.2 19.0 73 3.3 NE 6 6 3 3 1009.4 1009.3 0.0
25/02:00am 24.6 27.6 18.5 69 3.9 CALM 0 0 0 0 1009.6 1009.5 0.0
25/01:30am 24.9 27.9 18.4 67 4.1 CALM 0 0 0 0 1009.8 1009.7 0.0
25/01:00am 25.8 27.7 18.5 64 4.6 ENE 6 7 3 4 1010.1 1010.0 0.0
25/12:30am 26.0 27.8 18.2 62 4.9 ENE 6 6 3 3 1010.6 1010.5 0.0
25/12:00am 25.7 27.6 17.6 61 5.1 E 4 6 2 3 1010.7 1010.6 0.0
 
Date/Time
CST
Temp
°C
App
Temp
°C
Dew
Point
°C
Rel
Hum
%
Delta-T
°C
Wind Press
QNH
hPa
Press
MSL
hPa
Rain since
9am
mm
Dir  Spd
km/h
Gust
km/h
Spd
kts
Gust
kts
24/11:30pm 25.3 27.7 17.0 60 5.1 CALM 0 4 0 2 1010.8 1010.7 0.0
24/11:00pm 26.0 28.3 16.8 57 5.7 CALM 0 4 0 2 1010.8 1010.7 0.0
24/10:30pm 26.2 28.1 16.7 56 5.9 NE 2 4 1 2 1010.6 1010.5 0.0
24/10:00pm 26.9 29.0 16.2 52 6.6 CALM 0 4 0 2 1010.3 1010.2 0.0
24/09:30pm 27.9 28.6 16.2 49 7.2 NNE 7 9 4 5 1009.8 1009.7 0.0
24/09:00pm 28.9 29.6 16.1 46 7.9 NNE 7 13 4 7 1009.3 1009.2 0.0
24/08:30pm 29.7 29.5 15.8 43 8.6 NNE 11 15 6 8 1008.8 1008.7 0.0
24/08:00pm 29.7 29.8 15.4 42 8.8 NNE 9 15 5 8 1008.2 1008.1 0.0
24/07:30pm 31.3 31.4 14.0 35 10.5 N 6 9 3 5 1007.6 1007.5 0.0
24/07:00pm 31.9 31.5 14.1 34 10.8 NNE 9 15 5 8 1007.2 1007.1 0.0
24/06:30pm 33.1 32.5 14.7 33 11.4 NNE 11 17 6 9 1006.6 1006.5 0.0
24/06:00pm 34.5 32.7 15.4 32 12.0 N 19 28 10 15 1005.9 1005.8 0.0
24/05:30pm 38.6 36.3 7.4 15 17.7 SE 9 17 5 9 1005.1 1005.0 0.0
24/05:00pm 38.9 36.5 8.5 16 17.5 ESE 11 17 6 9 1005.1 1005.0 0.0
24/04:30pm 38.8 36.8 10.2 18 16.9 SSE 11 22 6 12 1005.2 1005.1 0.0
24/04:00pm 38.3 36.8 10.6 19 16.4 E 9 17 5 9 1005.2 1005.1 0.0
24/03:30pm 38.6 36.4 10.9 19 16.5 SSE 13 28 7 15 1005.5 1005.4 0.0
24/03:00pm 38.6 36.4 10.9 19 16.5 SE 13 24 7 13 1006.0 1005.9 0.0
24/02:30pm 38.4 36.8 12.9 22 15.6 ESE 13 24 7 13 1006.4 1006.3 0.0
24/02:00pm 37.6 36.8 12.9 23 15.1 ENE 9 17 5 9 1006.8 1006.7 0.0
24/01:30pm 37.4 37.0 14.0 24 14.5 S 9 24 5 13 1007.6 1007.5 0.0
24/01:00pm 35.7 36.0 14.9 29 13.0 E 7 15 4 8 1008.4 1008.3 0.0
24/12:30pm 35.9 35.5 16.1 30 12.6 NE 13 22 7 12 1009.0 1008.9 0.0
24/12:00pm 35.9 35.5 16.1 30 12.6 ENE 13 26 7 14 1009.7 1009.6 0.0
24/11:30am 33.9 34.7 17.2 37 10.7 S 9 17 5 9 1010.2 1010.1 0.0
24/11:00am 33.8 35.0 19.1 42 9.7 SSE 11 19 6 10 1010.9 1010.8 0.0
24/10:30am 32.9 35.7 20.4 47 8.3 S 6 13 3 7 1011.3 1011.2 0.0
24/10:00am 32.5 36.5 22.0 54 7.1 WNW 4 7 2 4 1011.6 1011.5 0.0
24/09:30am 31.3 34.6 21.8 57 6.4 ESE 7 11 4 6 1011.6 1011.5 0.0
24/09:00am 29.7 33.6 21.9 63 5.3 SSW 4 6 2 3 1011.6 1011.5 0.0
24/08:30am 29.3 33.5 22.5 67 4.6 S 4 6 2 3 1011.4 1011.3 0.0
24/08:00am 28.6 33.7 22.6 70 4.1 CALM 0 0 0 0 1011.3 1011.2 0.0
24/07:30am 27.6 33.0 23.2 77 3.0 CALM 0 0 0 0 1010.8 1010.7 0.0
24/07:00am 25.8 30.7 23.1 85 1.8 E 2 4 1 2 1010.5 1010.4 0.0
24/06:30am 24.8 29.5 22.7 88 1.4 E 2 4 1 2 1010.0 1009.9 0.0
24/06:00am 24.7 29.8 22.6 88 1.4 CALM 0 0 0 0 1009.6 1009.5 0.0
24/05:30am 24.8 29.7 22.3 86 1.7 CALM 0 0 0 0 1009.3 1009.2 0.0
24/05:00am 25.2 30.2 22.5 85 1.8 CALM 0 0 0 0 1009.0 1008.9 0.0
24/04:30am 25.5 30.6 22.6 84 2.0 CALM 0 2 0 1 1009.3 1009.2 0.0
24/04:00am 25.8 30.9 22.7 83 2.1 CALM 0 0 0 0 1009.3 1009.2 0.0
24/03:30am 25.8 31.0 22.9 84 2.0 CALM 0 0 0 0 1009.3 1009.2 0.0
24/03:00am 26.4 31.5 22.7 80 2.5 CALM 0 0 0 0 1009.5 1009.4 0.0
24/02:30am 26.6 31.7 22.7 79 2.6 CALM 0 0 0 0 1009.7 1009.6 0.0
24/02:00am 26.1 31.2 22.6 81 2.4 CALM 0 0 0 0 1010.0 1009.9 0.0
24/01:30am 25.7 30.6 22.4 82 2.2 CALM 0 0 0 0 1010.3 1010.2 0.0
24/01:00am 26.4 31.3 22.3 78 2.8 CALM 0 2 0 1 1010.4 1010.3 0.0
24/12:30am 26.5 31.0 22.3 78 2.8 NW 2 4 1 2 1010.7 1010.6 0.0
24/12:00am 26.5 31.6 22.6 79 2.6 CALM 0 0 0 0 1011.1 1011.0 0.0
 
Date/Time
CST
Temp
°C
App
Temp
°C
Dew
Point
°C
Rel
Hum
%
Delta-T
°C
Wind Press
QNH
hPa
Press
MSL
hPa
Rain since
9am
mm
Dir  Spd
km/h
Gust
km/h
Spd
kts
Gust
kts
23/11:30pm 27.1 32.1 22.5 76 3.1 CALM 0 0 0 0 1011.1 1011.0 0.0
23/11:00pm 27.4 31.6 22.4 74 3.4 NE 4 6 2 3 1011.1 1011.0 0.0
23/10:30pm 27.7 32.6 22.4 73 3.6 CALM 0 2 0 1 1011.0 1010.9 0.0
23/10:00pm 27.6 31.2 22.3 73 3.6 NE 7 9 4 5 1010.7 1010.6 0.0
23/09:30pm 28.2 31.6 22.0 69 4.2 NNE 7 11 4 6 1010.4 1010.3 0.0
23/09:00pm 28.3 30.8 21.1 65 4.8 NE 9 11 5 6 1009.9 1009.8 0.0
23/08:30pm 29.3 31.6 20.7 59 5.7 NNE 9 15 5 8 1009.4 1009.3 0.0
23/08:00pm 30.0 32.4 20.8 57 6.1 NNE 9 15 5 8 1009.1 1009.0 0.0
23/07:30pm 31.0 32.7 20.9 55 6.8 N 13 17 7 9 1008.6 1008.5 0.0
23/07:00pm 31.6 33.1 21.2 54 7.0 N 15 20 8 11 1007.9 1007.8 0.0
23/06:30pm 32.5 33.5 21.0 50 7.7 NNW 17 24 9 13 1007.4 1007.3 0.0
23/06:00pm 33.4 33.4 20.9 48 8.4 NNW 22 32 12 17 1007.2 1007.1 0.0
23/05:30pm 35.3 36.4 21.2 44 9.6 NW 17 24 9 13 1006.7 1006.6 0.0
23/05:00pm 35.7 36.3 18.7 36 11.2 NE 13 22 7 12 1006.4 1006.3 0.0
23/04:30pm 37.9 37.8 13.8 23 14.9 N 7 17 4 9 1006.1 1006.0 0.0
23/04:00pm 37.1 37.4 14.4 26 14.1 ENE 6 7 3 4 1006.3 1006.2 0.0

Other formats

Comma delimited format used in spreadsheet applications
http://www.bom.gov.au/fwo/IDD60801/IDD60801.94110.axf

JavaScript Object Notation format (JSON) in row-major order
http://www.bom.gov.au/fwo/IDD60801/IDD60801.94110.json

Data quality

Most of these data are generated automatically and are frequently updated. Quality checks on data are not normally performed. It is possible for incorrect values to appear. Refer to information at About Latest Weather Observations and please check the disclaimer before using these data.